Time;durP1;ratioP1;P1;durP2;ratioP2;P2;SDS_P1;SDS_P2;PMS_P1;PMS_P2;Temp;Humidity;BMP_temperature;BMP_pressure;BME280_temperature;BME280_humidity;BME280_pressure;Samples;Min_cycle;Max_cycle;Signal;HPM_P1;HPM_P2
2021/09/21 00:01:19;;;;;;;9.70;5.83;;;;;;;;;;4998006;28;20312;-83
2021/09/21 00:03:48;;;;;;;12.07;5.73;;;;;;;;;;4997826;28;20319;-81
2021/09/21 00:06:15;;;;;;;9.40;6.40;;;;;;;;;;4997961;28;20201;-82
2021/09/21 00:08:42;;;;;;;10.30;5.93;;;;;;;;;;4995577;28;20240;-81
2021/09/21 00:11:11;;;;;;;8.90;6.10;;;;;;;;;;4995450;28;20293;-82
2021/09/21 00:13:38;;;;;;;12.50;6.03;;;;;;;;;;4995803;28;20768;-82
2021/09/21 00:16:06;;;;;;;17.03;6.97;;;;;;;;;;4994175;28;20295;-82
2021/09/21 00:18:33;;;;;;;10.87;5.90;;;;;;;;;;4994411;28;20237;-82
2021/09/21 00:21:02;;;;;;;10.13;5.90;;;;;;;;;;4996167;28;20237;-83
2021/09/21 00:23:29;;;;;;;8.73;5.43;;;;;;;;;;4991714;28;20229;-82
2021/09/21 00:25:57;;;;;;;10.70;6.50;;;;;;;;;;4994621;28;20293;-80
2021/09/21 00:28:24;;;;;;;11.33;6.40;;;;;;;;;;4995490;28;20228;-82
2021/09/21 00:30:52;;;;;;;13.50;6.27;;;;;;;;;;4993257;28;20300;-82
2021/09/21 00:33:21;;;;;;;16.00;6.97;;;;;;;;;;4996315;28;20229;-82
2021/09/21 00:35:48;;;;;;;20.10;7.00;;;;;;;;;;4996881;28;20223;-81
2021/09/21 00:38:18;;;;;;;11.07;6.80;;;;;;;;;;4996301;28;20652;-82
2021/09/21 00:40:45;;;;;;;12.40;6.40;;;;;;;;;;4994828;28;20247;-81
2021/09/21 00:43:13;;;;;;;13.43;6.83;;;;;;;;;;4995133;28;20701;-81
2021/09/21 00:45:40;;;;;;;13.50;6.70;;;;;;;;;;4993307;28;20233;-83
2021/09/21 00:48:08;;;;;;;12.57;6.33;;;;;;;;;;4996500;28;20228;-81
2021/09/21 00:50:37;;;;;;;11.30;6.60;;;;;;;;;;4996344;28;20201;-83
2021/09/21 00:53:04;;;;;;;9.87;6.10;;;;;;;;;;4996103;28;21587;-81
2021/09/21 00:55:33;;;;;;;11.90;6.60;;;;;;;;;;4997493;28;20228;-81
2021/09/21 00:58:00;;;;;;;12.63;6.63;;;;;;;;;;4995406;28;20264;-81
2021/09/21 01:00:28;;;;;;;11.20;6.63;;;;;;;;;;4995839;28;20233;-82
2021/09/21 01:02:55;;;;;;;10.87;6.50;;;;;;;;;;4993718;28;20232;-82
2021/09/21 01:05:22;;;;;;;12.27;6.60;;;;;;;;;;4996366;28;20240;-81
2021/09/21 01:07:49;;;;;;;13.00;6.60;;;;;;;;;;4995905;28;20873;-81
2021/09/21 01:10:17;;;;;;;15.00;7.53;;;;;;;;;;4996705;28;20300;-80
2021/09/21 01:12:47;;;;;;;12.90;6.47;;;;;;;;;;4995392;28;20227;-81
2021/09/21 01:15:14;;;;;;;14.57;6.23;;;;;;;;;;4996503;28;20205;-82
2021/09/21 01:17:42;;;;;;;12.27;6.40;;;;;;;;;;4996678;28;20211;-83
2021/09/21 01:20:10;;;;;;;10.60;6.27;;;;;;;;;;4997527;28;20209;-83
2021/09/21 01:22:39;;;;;;;15.07;6.80;;;;;;;;;;4998906;28;20248;-83
2021/09/21 01:25:08;;;;;;;12.87;6.10;;;;;;;;;;5006665;28;20261;-80
2021/09/21 01:27:35;;;;;;;11.00;5.87;;;;;;;;;;5010967;28;20217;-79
2021/09/21 01:30:02;;;;;;;10.83;6.27;;;;;;;;;;5010739;28;20200;-83
2021/09/21 01:32:29;;;;;;;11.80;6.20;;;;;;;;;;4996987;28;20692;-82
2021/09/21 01:34:56;;;;;;;9.60;6.10;;;;;;;;;;4994719;28;20211;-83
2021/09/21 01:37:25;;;;;;;14.33;6.20;;;;;;;;;;4997429;28;20224;-82
2021/09/21 01:39:53;;;;;;;9.63;5.83;;;;;;;;;;4996293;28;20304;-83
2021/09/21 01:42:20;;;;;;;12.50;6.40;;;;;;;;;;4995324;28;20304;-82
2021/09/21 01:44:48;;;;;;;13.17;6.43;;;;;;;;;;4996455;28;20232;-82
2021/09/21 01:47:16;;;;;;;10.73;5.63;;;;;;;;;;4997032;28;20212;-83
2021/09/21 01:49:52;;;;;;;11.00;5.87;;;;;;;;;;4996171;28;20205;-82
2021/09/21 01:52:23;;;;;;;9.13;5.43;;;;;;;;;;4995363;28;20221;-82
2021/09/21 01:55:07;;;;;;;11.30;5.80;;;;;;;;;;4992300;28;20209;-82
2021/09/21 02:00:21;;;;;;;10.50;5.90;;;;;;;;;;4994076;28;20211;-82
2021/09/21 02:02:48;;;;;;;10.30;5.60;;;;;;;;;;4992404;28;20609;-83
2021/09/21 02:05:15;;;;;;;14.83;6.30;;;;;;;;;;4993829;28;21572;-83
2021/09/21 02:07:43;;;;;;;12.00;6.20;;;;;;;;;;4995588;28;20216;-81
2021/09/21 02:10:10;;;;;;;14.33;6.10;;;;;;;;;;4994143;28;20248;-80
2021/09/21 02:12:38;;;;;;;10.37;5.90;;;;;;;;;;4995562;28;20239;-82
2021/09/21 02:15:06;;;;;;;11.47;6.00;;;;;;;;;;4994787;28;20220;-82
2021/09/21 02:17:33;;;;;;;11.00;6.03;;;;;;;;;;4996938;28;20233;-82
2021/09/21 02:20:01;;;;;;;14.07;5.83;;;;;;;;;;4994502;28;20257;-80
2021/09/21 02:22:28;;;;;;;10.60;5.90;;;;;;;;;;4994917;28;20233;-81
2021/09/21 02:24:56;;;;;;;10.83;5.93;;;;;;;;;;4991690;28;20213;-80
2021/09/21 02:27:23;;;;;;;14.23;6.13;;;;;;;;;;4995827;28;20296;-82
2021/09/21 02:29:52;;;;;;;12.80;5.57;;;;;;;;;;4994603;28;20204;-82
2021/09/21 02:32:19;;;;;;;8.63;5.30;;;;;;;;;;4994884;28;20233;-81
2021/09/21 02:34:47;;;;;;;10.50;5.83;;;;;;;;;;4993374;28;20291;-81
2021/09/21 02:37:15;;;;;;;10.67;5.27;;;;;;;;;;4995815;28;20636;-81
2021/09/21 02:39:43;;;;;;;11.83;5.77;;;;;;;;;;4995126;28;20209;-82
2021/09/21 02:42:10;;;;;;;11.63;5.93;;;;;;;;;;4992188;28;20224;-83
2021/09/21 02:44:37;;;;;;;13.03;6.17;;;;;;;;;;4993281;28;20236;-80
2021/09/21 02:47:06;;;;;;;11.13;5.57;;;;;;;;;;4995108;28;20211;-83
2021/09/21 02:49:33;;;;;;;14.23;6.07;;;;;;;;;;4995603;28;20240;-82
2021/09/21 02:52:00;;;;;;;17.83;6.27;;;;;;;;;;4994536;28;20268;-82
2021/09/21 02:54:27;;;;;;;11.60;5.23;;;;;;;;;;4995435;28;20211;-84
2021/09/21 02:56:55;;;;;;;11.67;5.43;;;;;;;;;;4995569;28;20206;-84
2021/09/21 02:59:22;;;;;;;11.97;5.53;;;;;;;;;;4996434;28;20264;-84
2021/09/21 03:01:49;;;;;;;12.00;5.90;;;;;;;;;;4994957;28;20308;-84
2021/09/21 03:04:22;;;;;;;14.90;5.70;;;;;;;;;;4996638;28;20207;-84
2021/09/21 03:06:52;;;;;;;9.97;5.80;;;;;;;;;;4999008;28;20239;-80
2021/09/21 03:09:33;;;;;;;12.43;5.67;;;;;;;;;;5011185;28;20197;-79
2021/09/21 03:12:14;;;;;;;18.17;6.23;;;;;;;;;;5010041;28;20315;-79
2021/09/21 03:17:27;;;;;;;14.73;6.70;;;;;;;;;;4992728;28;20265;-81
2021/09/21 03:19:56;;;;;;;12.50;5.80;;;;;;;;;;4992368;28;20276;-81
2021/09/21 03:22:23;;;;;;;10.57;6.00;;;;;;;;;;4985072;28;20233;-82
2021/09/21 03:24:50;;;;;;;10.17;5.83;;;;;;;;;;4981681;28;20207;-81
2021/09/21 03:27:17;;;;;;;17.17;5.93;;;;;;;;;;4986217;28;20717;-82
2021/09/21 03:29:45;;;;;;;20.03;7.10;;;;;;;;;;4982242;28;20563;-81
2021/09/21 03:32:12;;;;;;;14.27;6.47;;;;;;;;;;4986918;28;20723;-82
2021/09/21 03:34:39;;;;;;;16.50;6.87;;;;;;;;;;4985570;28;20224;-79
2021/09/21 03:37:09;;;;;;;10.13;6.17;;;;;;;;;;4987096;28;20201;-81
2021/09/21 03:39:36;;;;;;;10.07;5.97;;;;;;;;;;4987240;28;20204;-80
2021/09/21 03:42:04;;;;;;;10.70;5.90;;;;;;;;;;4982076;28;20774;-81
2021/09/21 03:44:31;;;;;;;10.90;6.20;;;;;;;;;;4981308;28;20210;-81
2021/09/21 03:46:58;;;;;;;12.43;5.70;;;;;;;;;;4985484;28;20339;-83
2021/09/21 03:49:25;;;;;;;16.23;5.33;;;;;;;;;;4984858;28;20216;-82
2021/09/21 03:51:53;;;;;;;12.20;5.83;;;;;;;;;;4983142;28;20231;-81
2021/09/21 03:54:21;;;;;;;14.63;5.67;;;;;;;;;;4985957;28;20216;-82
2021/09/21 03:56:48;;;;;;;9.53;5.57;;;;;;;;;;4986020;28;20667;-83
2021/09/21 03:59:16;;;;;;;11.57;5.73;;;;;;;;;;4984134;28;20272;-83
2021/09/21 04:01:43;;;;;;;11.20;6.10;;;;;;;;;;4986553;28;20197;-83
2021/09/21 04:04:10;;;;;;;10.97;5.37;;;;;;;;;;4986183;28;20317;-84
2021/09/21 04:06:37;;;;;;;11.33;5.37;;;;;;;;;;4988157;28;20232;-81
2021/09/21 04:09:04;;;;;;;12.47;5.33;;;;;;;;;;4986100;28;20206;-83
2021/09/21 04:11:33;;;;;;;10.50;6.00;;;;;;;;;;4986628;28;20201;-83
2021/09/21 04:14:00;;;;;;;10.80;5.60;;;;;;;;;;4990183;28;20206;-82
2021/09/21 04:16:29;;;;;;;13.50;5.13;;;;;;;;;;4985864;28;20296;-84
2021/09/21 04:18:56;;;;;;;14.07;5.87;;;;;;;;;;4986753;28;20205;-82
2021/09/21 04:21:23;;;;;;;10.83;6.23;;;;;;;;;;4989571;28;20573;-82
2021/09/21 04:23:50;;;;;;;10.97;6.17;;;;;;;;;;4990051;28;20264;-82
2021/09/21 04:26:18;;;;;;;9.27;5.67;;;;;;;;;;4989981;28;20255;-82
2021/09/21 04:28:46;;;;;;;10.13;5.67;;;;;;;;;;4990787;28;20203;-84
2021/09/21 04:31:15;;;;;;;13.83;5.77;;;;;;;;;;4993738;28;20208;-82
2021/09/21 04:33:42;;;;;;;11.27;5.87;;;;;;;;;;4988559;28;20262;-84
2021/09/21 04:36:10;;;;;;;11.63;6.13;;;;;;;;;;4990286;28;20566;-83
2021/09/21 04:38:38;;;;;;;9.50;5.47;;;;;;;;;;4989619;28;20349;-83
2021/09/21 04:41:05;;;;;;;13.40;5.63;;;;;;;;;;4988524;28;20292;-85
2021/09/21 04:43:33;;;;;;;11.20;5.67;;;;;;;;;;4988603;28;20252;-84
2021/09/21 04:46:01;;;;;;;13.03;6.10;;;;;;;;;;4992563;28;20228;-84
2021/09/21 04:48:28;;;;;;;11.87;5.73;;;;;;;;;;4993722;28;20239;-83
2021/09/21 04:50:55;;;;;;;12.17;5.67;;;;;;;;;;4999335;28;20678;-82
2021/09/21 04:53:23;;;;;;;11.97;5.83;;;;;;;;;;5001296;28;20308;-83
2021/09/21 04:55:50;;;;;;;16.83;6.97;;;;;;;;;;4994254;28;20256;-82
2021/09/21 04:58:17;;;;;;;10.27;5.10;;;;;;;;;;4984309;28;20216;-82
2021/09/21 05:00:44;;;;;;;11.97;5.43;;;;;;;;;;4988462;28;20205;-82
2021/09/21 05:03:13;;;;;;;14.80;5.60;;;;;;;;;;4987180;28;20624;-83
2021/09/21 05:05:40;;;;;;;11.10;5.70;;;;;;;;;;4986218;28;20201;-81
2021/09/21 05:08:07;;;;;;;12.13;6.43;;;;;;;;;;4984648;28;20244;-82
2021/09/21 05:10:34;;;;;;;14.80;7.03;;;;;;;;;;4985211;28;20292;-82
2021/09/21 05:13:02;;;;;;;14.13;6.57;;;;;;;;;;4988298;28;20252;-82
2021/09/21 05:15:29;;;;;;;12.13;5.97;;;;;;;;;;4988039;28;20205;-83
2021/09/21 05:17:56;;;;;;;13.00;6.47;;;;;;;;;;4991315;28;20292;-84
2021/09/21 05:20:25;;;;;;;14.13;6.93;;;;;;;;;;4990795;28;20260;-84
2021/09/21 05:22:53;;;;;;;19.47;6.43;;;;;;;;;;4992422;28;20259;-82
2021/09/21 05:25:20;;;;;;;17.70;6.93;;;;;;;;;;4993478;28;20251;-85
2021/09/21 05:27:48;;;;;;;15.70;6.57;;;;;;;;;;4993292;28;20303;-84
2021/09/21 05:30:15;;;;;;;15.77;7.03;;;;;;;;;;4986147;28;20284;-82
2021/09/21 05:32:43;;;;;;;13.47;6.93;;;;;;;;;;4990022;28;20253;-83
2021/09/21 05:35:10;;;;;;;12.03;6.50;;;;;;;;;;4989529;28;20296;-82
2021/09/21 05:37:39;;;;;;;14.43;6.77;;;;;;;;;;4985091;28;20289;-83
2021/09/21 05:40:08;;;;;;;16.13;7.27;;;;;;;;;;4985801;28;20690;-81
2021/09/21 05:42:36;;;;;;;15.57;6.57;;;;;;;;;;4983772;28;20317;-82
2021/09/21 05:45:04;;;;;;;11.00;5.67;;;;;;;;;;4985557;28;20216;-83
2021/09/21 05:47:31;;;;;;;10.13;6.13;;;;;;;;;;4984975;28;20209;-82
2021/09/21 05:49:58;;;;;;;14.37;6.47;;;;;;;;;;4981588;28;20693;-82
2021/09/21 05:52:26;;;;;;;14.47;6.20;;;;;;;;;;4987327;28;20347;-83
2021/09/21 05:54:55;;;;;;;11.97;5.93;;;;;;;;;;4983186;28;20272;-83
2021/09/21 05:57:22;;;;;;;12.77;6.33;;;;;;;;;;4985159;28;20243;-83
2021/09/21 05:59:49;;;;;;;10.10;5.80;;;;;;;;;;4978389;28;20288;-83
2021/09/21 06:02:17;;;;;;;13.93;6.60;;;;;;;;;;4982184;28;20278;-84
2021/09/21 06:04:44;;;;;;;11.87;6.57;;;;;;;;;;4979018;28;20249;-83
2021/09/21 06:07:11;;;;;;;12.57;6.00;;;;;;;;;;4981586;28;20263;-83
2021/09/21 06:09:38;;;;;;;11.83;5.90;;;;;;;;;;4982562;28;20296;-83
2021/09/21 06:12:07;;;;;;;14.33;6.27;;;;;;;;;;4980457;28;20237;-83
2021/09/21 06:14:34;;;;;;;13.40;6.20;;;;;;;;;;4984451;28;20255;-83
2021/09/21 06:17:01;;;;;;;13.50;5.73;;;;;;;;;;4983658;28;20291;-83
2021/09/21 06:19:28;;;;;;;12.43;6.13;;;;;;;;;;4983091;28;20212;-83
2021/09/21 06:21:56;;;;;;;15.07;6.20;;;;;;;;;;4986580;28;20319;-83
2021/09/21 06:24:23;;;;;;;17.23;6.63;;;;;;;;;;4984241;28;20229;-85
2021/09/21 06:26:50;;;;;;;17.40;6.10;;;;;;;;;;5007752;28;20208;-85
2021/09/21 06:29:19;;;;;;;14.37;5.77;;;;;;;;;;5009257;28;20190;-83
2021/09/21 06:31:46;;;;;;;11.90;5.33;;;;;;;;;;4995903;28;20229;-83
2021/09/21 06:34:13;;;;;;;9.20;5.17;;;;;;;;;;5004102;28;20205;-82
2021/09/21 06:36:40;;;;;;;14.63;4.70;;;;;;;;;;4998236;28;20228;-83
2021/09/21 06:39:07;;;;;;;8.77;4.50;;;;;;;;;;4989267;28;20300;-82
2021/09/21 06:41:35;;;;;;;11.23;4.53;;;;;;;;;;4983847;28;20205;-83
2021/09/21 06:44:02;;;;;;;10.57;4.90;;;;;;;;;;4981908;28;20356;-87
2021/09/21 06:46:30;;;;;;;10.70;4.60;;;;;;;;;;4981802;28;20241;-82
2021/09/21 06:48:58;;;;;;;10.47;4.50;;;;;;;;;;4983782;28;20690;-81
2021/09/21 06:51:25;;;;;;;13.87;4.67;;;;;;;;;;4984192;28;20240;-84
2021/09/21 06:53:52;;;;;;;7.50;4.43;;;;;;;;;;4986318;28;20635;-82
2021/09/21 06:56:21;;;;;;;8.47;4.67;;;;;;;;;;4983676;28;20236;-81
2021/09/21 06:58:48;;;;;;;13.73;5.10;;;;;;;;;;4984530;28;20242;-82
2021/09/21 07:01:15;;;;;;;7.90;4.43;;;;;;;;;;4985962;28;20237;-82
2021/09/21 07:03:44;;;;;;;9.60;4.40;;;;;;;;;;4985692;28;20605;-83
2021/09/21 07:06:11;;;;;;;11.53;4.87;;;;;;;;;;4987250;28;21624;-81
2021/09/21 07:08:38;;;;;;;9.50;4.50;;;;;;;;;;4986443;28;20793;-82
2021/09/21 07:11:06;;;;;;;9.20;4.60;;;;;;;;;;4983687;28;20593;-82
2021/09/21 07:13:33;;;;;;;11.30;4.57;;;;;;;;;;4984577;28;20290;-83
2021/09/21 07:16:00;;;;;;;12.07;4.70;;;;;;;;;;4990528;28;20200;-84
2021/09/21 07:18:27;;;;;;;7.97;4.50;;;;;;;;;;4991985;28;20217;-84
2021/09/21 07:20:56;;;;;;;11.47;4.93;;;;;;;;;;4989138;28;20264;-85
2021/09/21 07:23:23;;;;;;;9.17;4.70;;;;;;;;;;4989440;28;20272;-88
2021/09/21 07:25:50;;;;;;;11.53;5.03;;;;;;;;;;4990618;28;20665;-83
2021/09/21 07:28:18;;;;;;;10.43;4.53;;;;;;;;;;4991286;28;20215;-83
2021/09/21 07:30:45;;;;;;;10.30;5.17;;;;;;;;;;4984724;28;20236;-82
2021/09/21 07:33:15;;;;;;;9.13;4.90;;;;;;;;;;4987817;28;20263;-84
2021/09/21 07:35:42;;;;;;;13.37;4.60;;;;;;;;;;4989884;28;20197;-84
2021/09/21 07:38:11;;;;;;;10.83;5.20;;;;;;;;;;4987753;28;20205;-84
2021/09/21 07:40:39;;;;;;;8.67;4.73;;;;;;;;;;4988153;28;20289;-83
2021/09/21 07:43:07;;;;;;;11.70;5.23;;;;;;;;;;4986365;28;20240;-84
2021/09/21 07:45:35;;;;;;;12.30;5.03;;;;;;;;;;4987079;28;20740;-84
2021/09/21 07:48:02;;;;;;;10.83;5.17;;;;;;;;;;4985976;28;20232;-85
2021/09/21 07:50:30;;;;;;;9.43;5.10;;;;;;;;;;4984409;28;20221;-83
2021/09/21 07:52:57;;;;;;;9.63;5.07;;;;;;;;;;4987622;28;20234;-84
2021/09/21 07:55:26;;;;;;;8.60;5.23;;;;;;;;;;4991995;28;20228;-82
2021/09/21 07:57:53;;;;;;;14.50;5.20;;;;;;;;;;4990088;28;20649;-85
2021/09/21 08:00:21;;;;;;;7.77;4.80;;;;;;;;;;4992017;28;20240;-83
2021/09/21 08:02:48;;;;;;;12.13;4.80;;;;;;;;;;4993050;28;20244;-83
2021/09/21 08:05:16;;;;;;;9.77;4.83;;;;;;;;;;4992642;28;20264;-84
2021/09/21 08:07:43;;;;;;;11.63;5.10;;;;;;;;;;4992854;28;20260;-84
2021/09/21 08:10:11;;;;;;;13.07;4.83;;;;;;;;;;4995736;28;20236;-84
2021/09/21 08:12:41;;;;;;;10.77;4.50;;;;;;;;;;4995175;28;20593;-84
2021/09/21 08:15:09;;;;;;;10.13;4.50;;;;;;;;;;4994478;28;20272;-83
2021/09/21 08:17:36;;;;;;;11.73;4.70;;;;;;;;;;5005795;28;20225;-84
2021/09/21 08:20:04;;;;;;;9.27;4.53;;;;;;;;;;5002837;28;20349;-84
2021/09/21 08:22:31;;;;;;;8.77;4.77;;;;;;;;;;4994734;28;20228;-84
2021/09/21 08:25:00;;;;;;;7.10;4.03;;;;;;;;;;4992121;28;20719;-83
2021/09/21 08:27:28;;;;;;;6.80;4.30;;;;;;;;;;4991597;28;20662;-84
2021/09/21 08:29:56;;;;;;;9.70;4.40;;;;;;;;;;4992609;28;20491;-84
2021/09/21 08:32:23;;;;;;;9.70;4.50;;;;;;;;;;4994658;28;20290;-84
2021/09/21 08:34:51;;;;;;;9.37;4.70;;;;;;;;;;4988003;28;20690;-85
2021/09/21 08:37:18;;;;;;;6.97;4.27;;;;;;;;;;4993090;28;20254;-84
2021/09/21 08:39:45;;;;;;;7.20;4.07;;;;;;;;;;4995222;28;20239;-88
2021/09/21 08:42:12;;;;;;;11.17;4.40;;;;;;;;;;4996702;28;20619;-85
2021/09/21 08:44:40;;;;;;;9.00;4.33;;;;;;;;;;4994656;28;20244;-85
2021/09/21 08:47:09;;;;;;;10.10;4.50;;;;;;;;;;4990078;28;20216;-85
2021/09/21 08:49:36;;;;;;;8.23;4.87;;;;;;;;;;4991028;28;20693;-85
2021/09/21 08:52:04;;;;;;;11.97;4.23;;;;;;;;;;4992868;28;20249;-84
2021/09/21 08:54:31;;;;;;;13.80;5.13;;;;;;;;;;4988304;28;20264;-84
2021/09/21 08:56:59;;;;;;;12.67;4.50;;;;;;;;;;4992172;28;20273;-85
2021/09/21 08:59:31;;;;;;;8.07;4.37;;;;;;;;;;4987966;28;20249;-83
2021/09/21 09:02:04;;;;;;;9.17;5.70;;;;;;;;;;4992612;28;20264;-84
2021/09/21 09:04:32;;;;;;;9.80;6.37;;;;;;;;;;4995698;28;20264;-84
2021/09/21 09:07:00;;;;;;;8.73;5.23;;;;;;;;;;4992134;28;20299;-84
2021/09/21 09:09:28;;;;;;;16.50;5.77;;;;;;;;;;4987464;28;20243;-84
2021/09/21 09:11:57;;;;;;;10.47;4.33;;;;;;;;;;4989822;28;20276;-84
2021/09/21 09:14:25;;;;;;;7.50;3.50;;;;;;;;;;4994968;28;20232;-84
2021/09/21 09:16:54;;;;;;;8.70;3.63;;;;;;;;;;4991362;28;20706;-85
2021/09/21 09:19:21;;;;;;;8.33;3.43;;;;;;;;;;4994655;28;20216;-85
2021/09/21 09:21:50;;;;;;;8.00;3.13;;;;;;;;;;4996149;28;20263;-85
2021/09/21 09:24:20;;;;;;;6.57;2.90;;;;;;;;;;4992713;28;20251;-86
2021/09/21 09:26:48;;;;;;;9.20;3.23;;;;;;;;;;4993262;28;20209;-86
2021/09/21 09:29:17;;;;;;;5.17;3.00;;;;;;;;;;4995624;28;20589;-85
2021/09/21 09:31:45;;;;;;;9.20;3.60;;;;;;;;;;4994528;28;20237;-85
2021/09/21 09:34:14;;;;;;;6.23;3.07;;;;;;;;;;4995301;28;20209;-84
2021/09/21 09:36:46;;;;;;;6.13;3.10;;;;;;;;;;4992751;28;20643;-85
2021/09/21 09:39:15;;;;;;;5.00;2.70;;;;;;;;;;4996950;28;20228;-85
2021/09/21 09:41:43;;;;;;;7.87;2.80;;;;;;;;;;4993202;28;20736;-84
2021/09/21 09:44:11;;;;;;;7.20;2.80;;;;;;;;;;4996821;28;20241;-85
2021/09/21 09:46:46;;;;;;;4.00;2.67;;;;;;;;;;4996797;28;20214;-84
2021/09/21 09:49:13;;;;;;;4.83;2.70;;;;;;;;;;4996493;28;20214;-85
2021/09/21 09:51:47;;;;;;;5.97;2.50;;;;;;;;;;4989869;28;20233;-84
2021/09/21 09:54:17;;;;;;;5.80;2.90;;;;;;;;;;4990937;28;20209;-84
2021/09/21 09:56:44;;;;;;;6.33;2.60;;;;;;;;;;4987024;28;20220;-85
2021/09/21 09:59:13;;;;;;;5.80;2.70;;;;;;;;;;5001793;28;20336;-84
2021/09/21 10:01:41;;;;;;;6.80;2.23;;;;;;;;;;5003578;28;20233;-84
2021/09/21 10:04:08;;;;;;;3.83;2.30;;;;;;;;;;4997416;28;20694;-84
2021/09/21 10:06:36;;;;;;;6.73;2.37;;;;;;;;;;4984825;28;20205;-84
2021/09/21 10:09:03;;;;;;;4.27;2.10;;;;;;;;;;4985370;28;20295;-83
2021/09/21 10:11:32;;;;;;;11.03;2.57;;;;;;;;;;4985539;28;20623;-84
2021/09/21 10:14:00;;;;;;;9.53;2.73;;;;;;;;;;4985276;28;20249;-83
2021/09/21 10:16:27;;;;;;;4.43;1.63;;;;;;;;;;4986464;28;20263;-83
2021/09/21 10:18:55;;;;;;;4.73;1.50;;;;;;;;;;4988537;28;20288;-84
2021/09/21 10:21:40;;;;;;;5.27;2.00;;;;;;;;;;4987621;28;20633;-83
2021/09/21 10:24:10;;;;;;;2.83;1.60;;;;;;;;;;4987042;28;20609;-83
2021/09/21 10:26:41;;;;;;;19.83;4.60;;;;;;;;;;4990725;28;20672;-84
2021/09/21 10:29:09;;;;;;;6.50;2.50;;;;;;;;;;4986708;28;20304;-83
2021/09/21 10:31:38;;;;;;;5.70;1.93;;;;;;;;;;4988922;28;20636;-83
2021/09/21 10:34:12;;;;;;;7.30;1.90;;;;;;;;;;4991257;28;20233;-83
2021/09/21 10:36:46;;;;;;;6.60;2.30;;;;;;;;;;4985886;28;20236;-83
2021/09/21 10:39:15;;;;;;;3.60;1.83;;;;;;;;;;4988375;28;20697;-84
2021/09/21 10:41:50;;;;;;;5.17;2.07;;;;;;;;;;4985563;28;20665;-84
2021/09/21 10:44:18;;;;;;;5.63;1.90;;;;;;;;;;4987758;28;20225;-83
2021/09/21 10:46:47;;;;;;;4.07;2.03;;;;;;;;;;4991669;28;20209;-84
2021/09/21 10:49:25;;;;;;;4.17;1.80;;;;;;;;;;4989918;28;20225;-83
2021/09/21 10:51:52;;;;;;;3.23;1.90;;;;;;;;;;4988285;28;20258;-83
2021/09/21 10:54:29;;;;;;;4.77;1.70;;;;;;;;;;4987856;28;20304;-83
2021/09/21 10:57:05;;;;;;;3.60;1.57;;;;;;;;;;4990192;28;20307;-83
2021/09/21 10:59:33;;;;;;;2.87;1.50;;;;;;;;;;4991754;28;20212;-84
2021/09/21 11:02:02;;;;;;;4.40;1.60;;;;;;;;;;4996663;28;21109;-83
2021/09/21 11:04:38;;;;;;;4.80;1.73;;;;;;;;;;4993755;28;20232;-84
2021/09/21 11:07:08;;;;;;;5.47;2.00;;;;;;;;;;4990426;28;20197;-84
2021/09/21 11:09:35;;;;;;;4.23;1.93;;;;;;;;;;4990453;28;20240;-83
2021/09/21 11:12:08;;;;;;;5.60;1.90;;;;;;;;;;4993481;28;20221;-84
2021/09/21 11:14:36;;;;;;;3.00;1.70;;;;;;;;;;4994915;28;20217;-85
2021/09/21 11:17:04;;;;;;;3.00;1.90;;;;;;;;;;4999197;28;20228;-85
2021/09/21 11:19:31;;;;;;;17.60;4.00;;;;;;;;;;4995336;28;20213;-86
2021/09/21 11:22:00;;;;;;;8.33;2.17;;;;;;;;;;4994618;28;20251;-85
2021/09/21 11:24:27;;;;;;;4.53;1.87;;;;;;;;;;4995653;28;20202;-84
2021/09/21 11:26:58;;;;;;;2.80;1.90;;;;;;;;;;4997094;28;20701;-84
2021/09/21 11:29:26;;;;;;;3.77;1.77;;;;;;;;;;4993130;28;20615;-85
2021/09/21 11:31:54;;;;;;;3.23;1.80;;;;;;;;;;4992720;28;20384;-84
2021/09/21 11:34:22;;;;;;;3.60;1.90;;;;;;;;;;4998640;28;20287;-85
2021/09/21 11:36:50;;;;;;;5.33;1.90;;;;;;;;;;4999076;28;20259;-84
2021/09/21 11:39:17;;;;;;;3.40;1.87;;;;;;;;;;4999857;28;20205;-84
2021/09/21 11:41:45;;;;;;;3.30;1.97;;;;;;;;;;5001705;28;20260;-86
2021/09/21 11:44:12;;;;;;;3.43;2.00;;;;;;;;;;5004563;28;20219;-84
2021/09/21 11:46:40;;;;;;;3.07;1.80;;;;;;;;;;5008840;28;20259;-85
2021/09/21 11:49:08;;;;;;;4.13;1.80;;;;;;;;;;4996003;28;20308;-85
2021/09/21 11:51:37;;;;;;;4.07;2.10;;;;;;;;;;4996062;28;20216;-85
2021/09/21 11:54:05;;;;;;;3.50;1.70;;;;;;;;;;4992337;28;20212;-84
2021/09/21 11:56:33;;;;;;;3.30;2.10;;;;;;;;;;4994252;28;20580;-83
2021/09/21 11:59:00;;;;;;;3.87;2.10;;;;;;;;;;4999301;28;20239;-83
2021/09/21 12:01:29;;;;;;;4.63;2.17;;;;;;;;;;4993228;28;20225;-85
2021/09/21 12:03:57;;;;;;;5.47;2.10;;;;;;;;;;4996101;28;20232;-83
2021/09/21 12:06:34;;;;;;;4.73;1.90;;;;;;;;;;4995758;28;20233;-84
2021/09/21 12:09:02;;;;;;;3.37;2.03;;;;;;;;;;4996213;28;20668;-84
2021/09/21 12:11:29;;;;;;;4.77;2.10;;;;;;;;;;4991296;28;20285;-85
2021/09/21 12:13:58;;;;;;;4.43;1.90;;;;;;;;;;4995502;28;20220;-84
2021/09/21 12:16:27;;;;;;;3.23;1.73;;;;;;;;;;4997345;28;20304;-84
2021/09/21 12:18:56;;;;;;;3.60;1.80;;;;;;;;;;4993410;28;20209;-84
2021/09/21 12:21:24;;;;;;;3.53;2.10;;;;;;;;;;4996673;28;20216;-85
2021/09/21 12:23:51;;;;;;;5.93;1.83;;;;;;;;;;4996750;28;20521;-85
2021/09/21 12:26:20;;;;;;;3.73;2.00;;;;;;;;;;4991927;28;20289;-84
2021/09/21 12:28:48;;;;;;;5.47;1.77;;;;;;;;;;4991779;28;20222;-86
2021/09/21 12:31:20;;;;;;;4.07;2.00;;;;;;;;;;4990226;28;20477;-85
2021/09/21 12:33:47;;;;;;;3.97;1.97;;;;;;;;;;4991883;28;20315;-84
2021/09/21 12:36:21;;;;;;;3.90;1.83;;;;;;;;;;4994638;28;20209;-84
2021/09/21 12:38:58;;;;;;;5.30;1.90;;;;;;;;;;4994225;28;20211;-85
2021/09/21 12:41:26;;;;;;;3.60;2.03;;;;;;;;;;4988576;28;20239;-85
2021/09/21 12:43:55;;;;;;;2.53;2.00;;;;;;;;;;4992563;28;20776;-85
2021/09/21 12:46:23;;;;;;;7.53;2.50;;;;;;;;;;4991972;28;20262;-85
2021/09/21 12:48:50;;;;;;;3.37;2.13;;;;;;;;;;4993460;28;20201;-85
2021/09/21 12:51:17;;;;;;;4.27;1.90;;;;;;;;;;4996481;28;20573;-85
2021/09/21 12:53:44;;;;;;;4.43;2.10;;;;;;;;;;4990703;28;20709;-85
2021/09/21 12:56:14;;;;;;;3.60;1.83;;;;;;;;;;4992063;28;20231;-85
2021/09/21 12:58:42;;;;;;;4.17;1.80;;;;;;;;;;4997005;28;20255;-83
2021/09/21 13:01:11;;;;;;;3.83;2.40;;;;;;;;;;4989776;28;20222;-86
2021/09/21 13:03:38;;;;;;;4.93;2.20;;;;;;;;;;4995479;28;20265;-84
2021/09/21 13:06:06;;;;;;;2.60;1.80;;;;;;;;;;4992694;28;20264;-85
2021/09/21 13:08:33;;;;;;;4.40;2.07;;;;;;;;;;4993565;28;20209;-85
2021/09/21 13:11:01;;;;;;;5.50;2.13;;;;;;;;;;4990763;28;20228;-84
2021/09/21 13:13:29;;;;;;;3.83;2.10;;;;;;;;;;4984296;28;20228;-84
2021/09/21 13:15:57;;;;;;;4.57;1.90;;;;;;;;;;4989367;28;20299;-86
2021/09/21 13:18:24;;;;;;;2.43;1.63;;;;;;;;;;5002348;28;20201;-86
2021/09/21 13:20:51;;;;;;;3.73;2.20;;;;;;;;;;5008529;28;20205;-86
2021/09/21 13:23:18;;;;;;;4.67;2.27;;;;;;;;;;5010987;28;20249;-85
2021/09/21 13:25:46;;;;;;;7.00;1.87;;;;;;;;;;4992541;28;20260;-86
2021/09/21 13:28:13;;;;;;;2.40;1.90;;;;;;;;;;4990657;28;20729;-84
2021/09/21 13:30:44;;;;;;;3.80;2.10;;;;;;;;;;4989893;28;20682;-84
2021/09/21 13:33:11;;;;;;;3.37;2.00;;;;;;;;;;4991886;28;20225;-84
2021/09/21 13:35:38;;;;;;;5.63;1.93;;;;;;;;;;4988530;28;20205;-84
2021/09/21 13:38:05;;;;;;;5.70;1.90;;;;;;;;;;4991150;28;20205;-85
2021/09/21 13:40:33;;;;;;;3.23;2.10;;;;;;;;;;4992396;28;20213;-85
2021/09/21 13:43:00;;;;;;;4.57;2.00;;;;;;;;;;4993404;28;20251;-86
2021/09/21 13:45:27;;;;;;;3.00;1.80;;;;;;;;;;4995400;28;20233;-85
2021/09/21 13:47:59;;;;;;;6.43;2.10;;;;;;;;;;4996691;28;20268;-85
2021/09/21 13:50:27;;;;;;;3.03;2.20;;;;;;;;;;4989660;28;20209;-85
2021/09/21 13:52:58;;;;;;;3.17;1.97;;;;;;;;;;4991743;28;20232;-84
2021/09/21 13:55:25;;;;;;;4.07;2.27;;;;;;;;;;4994131;28;20219;-84
2021/09/21 13:57:53;;;;;;;3.27;2.20;;;;;;;;;;4993061;28;20688;-83
2021/09/21 14:00:21;;;;;;;3.60;2.13;;;;;;;;;;4994274;28;20233;-84
2021/09/21 14:02:50;;;;;;;3.87;1.97;;;;;;;;;;4990251;28;21007;-83
2021/09/21 14:05:19;;;;;;;5.03;2.20;;;;;;;;;;4993949;28;20654;-85
2021/09/21 14:07:47;;;;;;;3.33;2.10;;;;;;;;;;4990904;28;20241;-84
2021/09/21 14:10:16;;;;;;;3.67;2.07;;;;;;;;;;4996484;28;20662;-85
2021/09/21 14:12:43;;;;;;;4.27;1.87;;;;;;;;;;4998222;28;20230;-85
2021/09/21 14:15:12;;;;;;;2.80;1.73;;;;;;;;;;4994456;28;20205;-83
2021/09/21 14:17:40;;;;;;;3.77;2.30;;;;;;;;;;4995917;28;20201;-85
2021/09/21 14:20:08;;;;;;;4.70;1.93;;;;;;;;;;4996787;28;20248;-86
2021/09/21 14:22:37;;;;;;;5.63;2.43;;;;;;;;;;4996516;28;20244;-84
2021/09/21 14:25:06;;;;;;;3.93;2.20;;;;;;;;;;4995734;28;20213;-84
2021/09/21 14:27:33;;;;;;;5.20;2.17;;;;;;;;;;4996603;28;20208;-85
2021/09/21 14:30:00;;;;;;;5.40;2.13;;;;;;;;;;4996913;28;20225;-85
2021/09/21 14:32:28;;;;;;;4.73;2.20;;;;;;;;;;4997258;28;20613;-84
2021/09/21 14:34:55;;;;;;;4.40;2.00;;;;;;;;;;4993872;28;20264;-84
2021/09/21 14:37:23;;;;;;;7.00;1.93;;;;;;;;;;4995688;28;20205;-83
2021/09/21 14:39:51;;;;;;;4.07;2.40;;;;;;;;;;4997740;28;20240;-85
2021/09/21 14:42:19;;;;;;;3.60;2.20;;;;;;;;;;4993386;28;20628;-85
2021/09/21 14:44:46;;;;;;;2.53;1.80;;;;;;;;;;4995300;28;20212;-84
2021/09/21 14:47:13;;;;;;;3.50;1.87;;;;;;;;;;4992820;28;20225;-86